RPi & Temperatures at JO21ut

Last graph updates: Tuesday 22 January 2019 05:02 CET

Sunrise: 08:27 & Sunset: 17:09 The Sun is currently not visible. [-28.62 degrees] and 147233181 Km from the Earth
Moonrise: 18:55 & Moonset: 9:28 Waning Gibbous Moon The Moon is 363336 Km from the Earth
Find here more details on MARS.

05:22:31 up 110 days, 1:58, 0 users, load average: 0.41, 0.40, 0.43
Current CPU frequency is: 1000 Mhz
Current GPU temperature: 25.02°C
Current inside temperature is 13.85°C with a humidity of 68.04%
Second inside temperature is 14.1°C with a pressure of 1007.72 Hpa (29.53 inHg) and an uncorrected altitude of 45.64 m
ds18b20 now showing 13.1°C

All the sensors I use, DHT22 | BMP085 | MPU6050 | BH1750FVI | MMA7455 | HMC5883L | MPL3115A2 | DS1307 | HTU21 | AM2321 | DS3231 | INA219 | LM75A , and it's current readout can be viewed here please be patient as it needs to read all sensors data. The page loads after about 10 seconds. In our forum more details can be found such as the used software/sources. Feel free to add yours also..


Pressure BMP085
Pressure BMP085
Pressure BMP085
Pressure BMP085
PI CPU Temp
Inet Volkel temp
Inside temp BMP085
Humidity BMP085
PI CPU Temp
Inet Volkel temp
Inside temp BMP085
Humidity BMP085
PI CPU Temp
Inet Volkel temp
Inside temp BMP085
Humidity BMP085
PI CPU Temp
Inet Volkel temp
Inside temp BMP085
Humidity BMP085
PI CPU Temp
Inet Volkel temp
Inside temp BMP085
Humidity BMP085
Inside light BH1750FV
Inside light BH1750FV
Inside light BH1750FV
Inside light BH1750FV
Inside light BH1750FV
Inside light BH1750FV
Sunlight hours
 

Sun & Moon height


Wijchen weather

Weer Widget
ScreenSaver yr.no

Sun Moon Earth


EHEH 220355Z AUTO 16007KT 140V200 9999 OVC160 M04/M06 Q1012 BLU EHEH 220355Z AUTO 16007KT 140V200 9999 OVC160 M04/M06 Q1012 BLU EHEH 220355Z AUTO 16007KT 140V200 9999 OVC160 M04/M06 Q1012 BLU

Weather data from Volkel [NL] EHVK


28 minutes ago, at 03:55 UTC, the wind was blowing at a speed of 3.6 meters per second (8.1 miles per hour/7 knots) from South/Southeast (160) in Volkel [EHVK], Netherlands. The temperature was -4 °C (25 °F) with a dewpoint of -6 °C (21 °F), the windchill was -9 °C (16 °F) and the pressure was 1,012 hPa (29.88 inHg). The relative humidity was 85.9%. There were overcast at a height of 4877 meter (16000 feet). The visibility was >10 kilometers (>6.2 miles).




View code:

Contact me  |  My Raspberry PI forum